Flight Track Log - Related Links

Times and Time Zones

All times are in EDT time to prevent confusion due to time zone crossing. See the BJS438 flight status page for this flight to view local times or setup timezone preferences in your user account.

Time Position Orientation Groundspeed Altitude Reporting Facility
EDT Latitude Longitude Course Direction KTS MPH feet Rate Location/Type
Fri 02:07:00 PM 42.3500 -71.0167 160° South 161 185 900  Level KA90
Fri 02:07:36 PM 42.3167 -71.0000 160° South 225 259 2,200 2,688 Climbing KA90
Fri 02:08:36 PM 42.3167 -70.9167 90° East 267 307 5,200 2,967 Climbing KA90
Fri 02:09:07 PM 42.3186 -70.8678 87° East 278 320 6,700 3,099 Climbing Boston Center
Fri 02:10:07 PM 42.3444 -70.7772 69° East 304 350 9,900 3,450 Climbing Boston Center
Fri 02:11:07 PM 42.4167 -70.7247 28° Northeast 281 323 13,600 3,800 Climbing Boston Center
Fri 02:12:07 PM 42.5044 -70.7419 352° North 273 314 17,500 3,450 Climbing Boston Center
Fri 02:13:07 PM 42.5703 -70.8331 314° West 300 345 20,500 2,700 Climbing Boston Center
Fri 02:14:07 PM 42.6239 -70.9447 303° West 331 381 22,900 2,450 Climbing Boston Center
Fri 02:15:07 PM 42.6839 -71.0647 304° West 356 410 25,400 2,750 Climbing Boston Center
Fri 02:16:07 PM 42.7394 -71.1878 302° West 373 429 28,400 2,850 Climbing Boston Center
Fri 02:17:07 PM 42.7844 -71.3114 296° West 373 429 31,100 2,433 Climbing Boston Center
Fri 02:19:07 PM 42.8119 -71.5939 278° West 363 418 35,700 2,067 Climbing Boston Center
Fri 02:20:07 PM 42.8253 -71.7267 278° West 357 411 37,300 1,300 Climbing Boston Center
Fri 02:21:07 PM 42.8386 -71.8625 278° West 357 411 38,300 1,250 Climbing Boston Center
Fri 02:22:07 PM 42.8517 -71.9983 278° West 362 417 39,800 1,350 Climbing Boston Center
Fri 02:23:07 PM 42.8628 -72.1314 277° West 362 417 41,000 965 Climbing Boston Center
Fri 02:24:30 PM 42.8817 -72.2842 280° West 374 430 42,100 833 Climbing Boston Center
Fri 02:25:31 PM 42.8944 -72.4458 276° West 374 430 43,000 450 Climbing Boston Center
Fri 02:26:30 PM 42.9067 -72.5536 279° West 369 425 43,000  Level Boston Center
Fri 02:27:31 PM 42.9147 -72.7319 274° West 369 425 43,000  Level Boston Center
Fri 02:28:31 PM 42.9269 -72.8739 277° West 369 425 43,000  Level Boston Center
Fri 02:29:31 PM 42.9431 -73.0072 279° West 384 442 43,000  Level Boston Center
Fri 02:30:31 PM 42.9547 -73.1522 276° West 389 448 43,000  Level Boston Center
Fri 02:31:31 PM 42.9661 -73.2997 276° West 389 448 43,000  Level Boston Center
Fri 02:32:31 PM 42.9711 -73.4447 273° West 389 448 43,000  Level Boston Center
Fri 02:33:31 PM 42.9844 -73.5894 277° West 389 448 43,000  Level Boston Center
Fri 02:34:31 PM 42.9953 -73.7403 276° West 389 448 43,000  Level Boston Center
Fri 02:35:31 PM 43.0081 -73.8881 277° West 395 455 43,000  Level Boston Center
Fri 02:36:31 PM 43.0186 -74.0389 276° West 395 455 43,000  Level Boston Center
Fri 02:37:31 PM 43.0308 -74.1897 276° West 400 460 43,000  Level Boston Center
Fri 02:38:31 PM 43.0411 -74.3350 276° West 400 460 43,000  Level Boston Center
Fri 02:39:31 PM 43.0511 -74.4858 275° West 400 460 43,000  Level Boston Center
Fri 02:40:31 PM 43.0628 -74.6369 276° West 400 460 43,000  Level Boston Center
Fri 02:41:42 PM 43.0703 -74.7822 274° West 400 460 43,000  Level Boston Center
Fri 02:42:43 PM 43.0831 -74.9617 276° West 406 467 43,000  Level Boston Center
Fri 02:43:43 PM 43.0939 -75.1328 275° West 406 467 43,000  Level Boston Center
Fri 02:45:00 PM 43.1048 -75.3264 274° West  Level FlightAware Approximate
Fri 02:45:43 PM 43.1133 -75.4436 274° West 411 473 43,000  Level Boston Center
Fri 02:46:43 PM 43.1233 -75.6036 275° West 411 473 43,000  Level Boston Center
Fri 02:47:43 PM 43.1339 -75.7550 276° West 416 479 43,000  Level Boston Center
Fri 02:48:43 PM 43.1456 -75.9150 276° West 416 479 43,000  Level Boston Center
Fri 02:49:43 PM 43.1553 -76.0750 275° West 416 479 43,000  Level Boston Center
Fri 02:51:22 PM 43.1514 -76.3397 269° West 420 483 43,000  Level Cleveland Center
Fri 02:52:22 PM 43.1344 -76.5003 262° West 426 490 43,000  Level Cleveland Center
Fri 02:53:23 PM 43.1211 -76.6633 264° West 426 490 43,000  Level Cleveland Center
Fri 02:54:22 PM 43.1072 -76.8094 263° West 426 490 43,000  Level Cleveland Center
Fri 02:55:22 PM 43.0936 -76.9722 264° West 426 490 43,000  Level Cleveland Center
Fri 02:57:22 PM 43.0639 -77.2981 263° West 432 497 43,000  Level Cleveland Center
Fri 02:58:22 PM 43.0497 -77.4608 263° West 432 497 43,000  Level Cleveland Center
Fri 02:59:23 PM 43.0331 -77.6264 262° West 432 497 43,000  Level Cleveland Center
Fri 03:00:22 PM 43.0183 -77.7919 263° West 438 504 43,000  Level Cleveland Center
Fri 03:01:22 PM 42.9997 -77.9717 262° West 443 510 43,000  Level Cleveland Center
Fri 03:02:22 PM 42.9825 -78.1311 262° West 443 510 43,000  Level Cleveland Center
Fri 03:03:22 PM 42.9669 -78.2936 263° West 437 503 43,000  Level Cleveland Center
Fri 03:04:22 PM 42.9511 -78.4531 262° West 437 503 43,000  Level Cleveland Center
Fri 03:05:22 PM 42.9353 -78.6153 262° West 432 497 43,000  Level Cleveland Center
Fri 03:06:22 PM 42.9358 -78.7739 270° West 425 489 43,000  Level Cleveland Center
Fri 03:07:24 PM 42.9333 -78.9333 269° West 430 495 43,000  Level Toronto Center
Fri 03:08:24 PM 42.9500 -79.0667 280° West 430 495 43,000 169 Level Toronto Center
Fri 03:10:22 PM 42.9711 -79.4169 275° West 425 489 43,500 567 Climbing Cleveland Center
Fri 03:11:24 PM 42.9667 -79.5500 267° West 410 472 44,700 738 Climbing Toronto Center
Fri 03:12:24 PM 42.9667 -79.7000 270° West 410 472 45,000 150 Climbing Toronto Center
Fri 03:13:24 PM 42.9833 -79.8667 278° West 420 483 45,000  Level Toronto Center
Fri 03:14:24 PM 42.9833 -80.0500 270° West 420 483 45,000  Level Toronto Center
Fri 03:15:24 PM 43.0000 -80.1833 280° West 420 483 45,000  Level Toronto Center
Fri 03:16:24 PM 43.0000 -80.3667 270° West 420 483 45,000  Level Toronto Center
Fri 03:17:24 PM 43.0000 -80.5167 270° West 420 483 45,000  Level Toronto Center
Fri 03:18:24 PM 43.0000 -80.6667 270° West 420 483 45,000  Level Toronto Center
Fri 03:19:24 PM 42.9833 -80.8333 262° West 420 483 45,000  Level Toronto Center
Fri 03:20:24 PM 42.9833 -80.9833 270° West 420 483 45,000  Level Toronto Center
Fri 03:21:24 PM 42.9833 -81.1667 270° West 420 483 45,000  Level Toronto Center
Fri 03:22:24 PM 42.9833 -81.3167 270° West 420 483 45,000  Level Toronto Center
Fri 03:23:24 PM 42.9833 -81.4833 270° West 420 483 45,000  Level Toronto Center
Fri 03:24:24 PM 43.0000 -81.6333 279° West 430 495 45,000  Level Toronto Center
Fri 03:25:24 PM 43.0000 -81.8000 270° West 420 483 45,000  Level Toronto Center
Fri 03:26:24 PM 42.9833 -81.9500 261° West 420 483 45,000  Level Toronto Center
Fri 03:27:24 PM 42.9833 -82.1167 270° West 420 483 45,000  Level Toronto Center
Fri 03:28:24 PM 42.9833 -82.2833 270° West 430 495 45,000  Level Toronto Center
Fri 03:29:24 PM 42.9833 -82.4333 270° West 430 495 45,000  Level Toronto Center
Fri 03:30:24 PM 42.9833 -82.6167 270° West 430 495 45,000  Level Toronto Center
Fri 03:31:24 PM 42.9667 -82.7500 260° West 430 495 45,000 -150 Level Toronto Center
Fri 03:32:24 PM 42.9500 -82.9167 262° West 430 495 44,700 -750 Descending Toronto Center
Fri 03:33:24 PM 42.9333 -83.1000 263° West 430 495 43,500 -1,246 Descending Toronto Center
Fri 03:34:34 PM 42.9128 -83.2564 260° West 426 490 42,000 -1,338 Descending Cleveland Center
Fri 03:35:34 PM 42.8906 -83.4028 258° West 413 475 40,600 -1,450 Descending Cleveland Center
Fri 03:36:34 PM 42.8703 -83.5464 259° West 402 463 39,100 -1,450 Descending Cleveland Center
Fri 03:37:34 PM 42.8519 -83.6872 260° West 391 450 37,700 -1,500 Descending Cleveland Center
Fri 03:38:34 PM 42.8244 -83.8472 257° West 391 450 36,100 -1,400 Descending Cleveland Center
Fri 03:39:34 PM 42.8011 -84.0075 259° West 412 474 34,900 -1,250 Descending Cleveland Center
Fri 03:40:34 PM 42.7772 -84.1731 259° West 430 495 33,600 -1,150 Descending Cleveland Center
Fri 03:41:34 PM 42.7567 -84.2992 258° West 442 509 32,600 -1,200 Descending Cleveland Center
Fri 03:42:34 PM 42.7322 -84.4703 259° West 432 497 31,200 -1,122 Descending Cleveland Center
Fri 03:43:53 PM 42.6953 -84.7042 258° West 450 518 30,000 -511 Descending Chicago Center
Fri 03:44:55 PM 42.6672 -84.8772 258° West 464 534 30,000  Level Chicago Center
Fri 03:45:57 PM 42.6411 -85.0467 258° West 462 532 30,000 -387 Level Chicago Center
Fri 03:46:59 PM 42.6142 -85.2125 258° West 456 525 29,200 -1,113 Descending Chicago Center
Fri 03:48:01 PM 42.5878 -85.3692 257° West 436 502 27,700 -1,452 Descending Chicago Center
Fri 03:49:03 PM 42.5647 -85.5158 258° West 406 467 26,200 -1,597 Descending Chicago Center
Fri 03:50:05 PM 42.5336 -85.6983 257° West 411 473 24,400 -1,597 Descending Chicago Center
Fri 03:51:07 PM 42.5083 -85.8542 258° West 422 486 22,900 -1,392 Descending Chicago Center
Fri 03:52:10 PM 42.4819 -86.0056 257° West 414 476 21,500 -1,296 Descending Chicago Center
Fri 03:53:12 PM 42.4608 -86.1492 259° West 394 453 20,200 -1,742 Descending Chicago Center
Fri 03:54:14 PM 42.4558 -86.2889 267° West 373 429 17,900 -2,226 Descending Chicago Center
Fri 03:55:16 PM 42.4486 -86.4217 266° West 357 411 15,600 -2,226 Descending Chicago Center
Fri 03:56:18 PM 42.4419 -86.5431 266° West 326 375 13,300 -2,323 Descending Chicago Center
Fri 03:57:20 PM 42.4347 -86.6792 266° West 305 351 10,800 -1,887 Descending Chicago Center
Fri 03:58:22 PM 42.4297 -86.7819 266° West 277 319 9,400 -1,355 Descending Chicago Center
Fri 03:59:24 PM 42.4244 -86.8736 266° West 251 289 8,000 -1,392 Descending Chicago Center
Fri 04:00:27 PM 42.4194 -86.9683 266° West 253 291 6,500 -1,344 Descending Chicago Center
Fri 04:01:29 PM 42.4131 -87.0614 265° West 250 288 5,200 -1,161 Descending Chicago Center
Fri 04:02:31 PM 42.4042 -87.1447 262° West 231 266 4,100 -1,113 Descending Chicago Center
Fri 04:03:33 PM 42.3944 -87.2553 263° West 247 284 2,900 -581 Descending Chicago Center
Fri 04:04:35 PM 42.3858 -87.3578 264° West 258 297 2,900  Level Chicago Center
Fri 04:05:37 PM 42.3769 -87.4533 263° West 259 298 2,900  Level Chicago Center
Fri 04:06:39 PM 42.3669 -87.5436 262° West 256 295 2,900  Level Chicago Center
Fri 04:07:41 PM 42.3611 -87.6367 265° West 248 285 2,900  Level Chicago Center
Fri 04:08:43 PM 42.3483 -87.7444 261° West 251 289 2,900  Level Chicago Center
Fri 04:09:46 PM 42.3414 -87.8350 264° West 250 288 2,900  Level Chicago Center
Fri 04:10:48 PM 42.3364 -87.9089 265° West 216 249 2,900  Level Chicago Center
Fri 04:11:50 PM 42.3317 -87.9722 264° West 186 214 2,900 -290 Level Chicago Center
Fri 04:12:52 PM 42.2833 -87.9753 183° South 185 213 2,300 -290 Descending Chicago Center
Fri 04:13:54 PM 42.2308 -87.9653 172° South 171 197 2,300  Level Chicago Center
Fri 04:14:56 PM 42.1953 -87.9492 161° South 150 173 2,300 -290 Level Chicago Center
Fri 04:15:58 PM 42.1658 -87.9308 155° Southeast 133 153 1,700 -532 Descending Chicago Center
Fri 04:17:00 PM 42.1378 -87.9158 158° South 125 144 1,200 -339 Descending Chicago Center
Fri 04:18:02 PM 42.1053 -87.8967 156° South 119 137 1,000 -194 Descending Chicago Center

Login

Don't have an account? Register now (free) for customized features, flight alerts, and more!